sensor_id;sensor_type;location;lat;lon;timestamp;P1;durP1;ratioP1;P2;durP2;ratioP2
44822;SDS011;51097;51.984;5.650;2022-10-16T00:00:56;8.20;;;3.58;;
44822;SDS011;51097;51.984;5.650;2022-10-16T00:03:21;6.85;;;3.40;;
44822;SDS011;51097;51.984;5.650;2022-10-16T00:05:47;6.50;;;3.97;;
44822;SDS011;51097;51.984;5.650;2022-10-16T00:08:13;5.88;;;3.80;;
44822;SDS011;51097;51.984;5.650;2022-10-16T00:10:39;8.93;;;3.63;;
44822;SDS011;51097;51.984;5.650;2022-10-16T00:13:05;7.18;;;3.83;;
44822;SDS011;51097;51.984;5.650;2022-10-16T00:15:35;9.82;;;3.50;;
44822;SDS011;51097;51.984;5.650;2022-10-16T00:18:02;6.28;;;4.05;;
44822;SDS011;51097;51.984;5.650;2022-10-16T00:20:28;6.70;;;4.13;;
44822;SDS011;51097;51.984;5.650;2022-10-16T00:22:56;9.18;;;4.05;;
44822;SDS011;51097;51.984;5.650;2022-10-16T00:25:22;5.20;;;4.10;;
44822;SDS011;51097;51.984;5.650;2022-10-16T00:27:47;8.45;;;4.72;;
44822;SDS011;51097;51.984;5.650;2022-10-16T00:30:13;8.57;;;4.32;;
44822;SDS011;51097;51.984;5.650;2022-10-16T00:32:38;7.40;;;4.30;;
44822;SDS011;51097;51.984;5.650;2022-10-16T00:35:04;7.50;;;4.15;;
44822;SDS011;51097;51.984;5.650;2022-10-16T00:37:30;8.73;;;4.45;;
44822;SDS011;51097;51.984;5.650;2022-10-16T00:39:55;6.55;;;4.35;;
44822;SDS011;51097;51.984;5.650;2022-10-16T00:42:21;9.50;;;4.65;;
44822;SDS011;51097;51.984;5.650;2022-10-16T00:44:51;4.97;;;3.85;;
44822;SDS011;51097;51.984;5.650;2022-10-16T00:47:29;8.07;;;4.60;;
44822;SDS011;51097;51.984;5.650;2022-10-16T00:50:00;8.73;;;4.40;;
44822;SDS011;51097;51.984;5.650;2022-10-16T00:52:27;8.48;;;5.25;;
44822;SDS011;51097;51.984;5.650;2022-10-16T00:54:53;6.75;;;4.38;;
44822;SDS011;51097;51.984;5.650;2022-10-16T00:57:19;8.00;;;4.72;;
44822;SDS011;51097;51.984;5.650;2022-10-16T00:59:45;6.88;;;4.85;;
44822;SDS011;51097;51.984;5.650;2022-10-16T01:02:12;8.77;;;4.13;;
44822;SDS011;51097;51.984;5.650;2022-10-16T01:04:40;5.80;;;4.10;;
44822;SDS011;51097;51.984;5.650;2022-10-16T01:07:27;11.82;;;4.85;;
44822;SDS011;51097;51.984;5.650;2022-10-16T01:20:29;5.53;;;4.47;;
44822;SDS011;51097;51.984;5.650;2022-10-16T01:22:59;8.25;;;4.68;;
44822;SDS011;51097;51.984;5.650;2022-10-16T01:28:22;8.45;;;4.55;;
44822;SDS011;51097;51.984;5.650;2022-10-16T01:30:53;9.40;;;4.53;;
44822;SDS011;51097;51.984;5.650;2022-10-16T01:33:24;5.80;;;4.20;;
44822;SDS011;51097;51.984;5.650;2022-10-16T01:36:14;8.57;;;4.88;;
44822;SDS011;51097;51.984;5.650;2022-10-16T01:38:43;5.70;;;3.90;;
44822;SDS011;51097;51.984;5.650;2022-10-16T01:41:22;5.82;;;4.30;;
44822;SDS011;51097;51.984;5.650;2022-10-16T01:46:23;5.63;;;4.13;;
44822;SDS011;51097;51.984;5.650;2022-10-16T01:48:49;5.53;;;3.72;;
44822;SDS011;51097;51.984;5.650;2022-10-16T01:51:17;5.32;;;3.90;;
44822;SDS011;51097;51.984;5.650;2022-10-16T01:53:46;4.45;;;4.00;;
44822;SDS011;51097;51.984;5.650;2022-10-16T01:56:17;6.35;;;3.90;;
44822;SDS011;51097;51.984;5.650;2022-10-16T01:58:46;5.00;;;3.58;;
44822;SDS011;51097;51.984;5.650;2022-10-16T02:01:15;6.10;;;4.87;;
44822;SDS011;51097;51.984;5.650;2022-10-16T02:03:45;4.30;;;3.40;;
44822;SDS011;51097;51.984;5.650;2022-10-16T02:06:15;4.05;;;3.50;;
44822;SDS011;51097;51.984;5.650;2022-10-16T02:08:41;5.28;;;3.70;;
44822;SDS011;51097;51.984;5.650;2022-10-16T02:11:09;5.65;;;3.53;;
44822;SDS011;51097;51.984;5.650;2022-10-16T02:13:55;6.05;;;3.60;;
44822;SDS011;51097;51.984;5.650;2022-10-16T02:16:36;9.18;;;3.67;;
44822;SDS011;51097;51.984;5.650;2022-10-16T02:19:04;6.38;;;3.42;;
44822;SDS011;51097;51.984;5.650;2022-10-16T02:21:44;4.97;;;3.42;;
44822;SDS011;51097;51.984;5.650;2022-10-16T02:29:47;4.13;;;3.25;;
44822;SDS011;51097;51.984;5.650;2022-10-16T02:32:19;6.20;;;3.30;;
44822;SDS011;51097;51.984;5.650;2022-10-16T02:34:48;6.10;;;3.45;;
44822;SDS011;51097;51.984;5.650;2022-10-16T02:37:16;3.97;;;3.28;;
44822;SDS011;51097;51.984;5.650;2022-10-16T02:39:42;6.07;;;3.08;;
44822;SDS011;51097;51.984;5.650;2022-10-16T02:42:12;5.57;;;3.08;;
44822;SDS011;51097;51.984;5.650;2022-10-16T02:47:04;5.82;;;3.13;;
44822;SDS011;51097;51.984;5.650;2022-10-16T02:49:30;5.57;;;3.60;;
44822;SDS011;51097;51.984;5.650;2022-10-16T02:51:55;5.65;;;3.80;;
44822;SDS011;51097;51.984;5.650;2022-10-16T02:54:21;4.22;;;3.20;;
44822;SDS011;51097;51.984;5.650;2022-10-16T02:56:46;4.85;;;3.53;;
44822;SDS011;51097;51.984;5.650;2022-10-16T02:59:12;3.92;;;3.00;;
44822;SDS011;51097;51.984;5.650;2022-10-16T03:01:37;4.70;;;3.13;;
44822;SDS011;51097;51.984;5.650;2022-10-16T03:04:03;5.38;;;3.08;;
44822;SDS011;51097;51.984;5.650;2022-10-16T03:06:28;5.95;;;3.38;;
44822;SDS011;51097;51.984;5.650;2022-10-16T03:08:54;4.82;;;2.95;;
44822;SDS011;51097;51.984;5.650;2022-10-16T03:11:20;5.20;;;2.72;;
44822;SDS011;51097;51.984;5.650;2022-10-16T03:13:45;5.82;;;3.17;;
44822;SDS011;51097;51.984;5.650;2022-10-16T03:16:11;4.05;;;2.75;;
44822;SDS011;51097;51.984;5.650;2022-10-16T03:18:36;5.00;;;2.90;;
44822;SDS011;51097;51.984;5.650;2022-10-16T03:21:02;6.72;;;3.58;;
44822;SDS011;51097;51.984;5.650;2022-10-16T03:23:27;9.13;;;2.88;;
44822;SDS011;51097;51.984;5.650;2022-10-16T03:25:53;6.32;;;3.28;;
44822;SDS011;51097;51.984;5.650;2022-10-16T03:28:19;4.07;;;3.08;;
44822;SDS011;51097;51.984;5.650;2022-10-16T03:30:44;4.45;;;3.25;;
44822;SDS011;51097;51.984;5.650;2022-10-16T03:33:10;3.85;;;2.60;;
44822;SDS011;51097;51.984;5.650;2022-10-16T03:35:36;3.85;;;3.00;;
44822;SDS011;51097;51.984;5.650;2022-10-16T03:38:01;4.05;;;2.90;;
44822;SDS011;51097;51.984;5.650;2022-10-16T03:40:27;4.57;;;3.38;;
44822;SDS011;51097;51.984;5.650;2022-10-16T03:42:52;4.13;;;3.00;;
44822;SDS011;51097;51.984;5.650;2022-10-16T03:45:22;4.07;;;2.97;;
44822;SDS011;51097;51.984;5.650;2022-10-16T03:47:47;5.25;;;2.70;;
44822;SDS011;51097;51.984;5.650;2022-10-16T03:50:13;3.78;;;2.40;;
44822;SDS011;51097;51.984;5.650;2022-10-16T03:52:39;3.22;;;2.58;;
44822;SDS011;51097;51.984;5.650;2022-10-16T03:55:04;6.97;;;2.60;;
44822;SDS011;51097;51.984;5.650;2022-10-16T03:57:30;4.15;;;2.55;;
44822;SDS011;51097;51.984;5.650;2022-10-16T03:59:56;3.05;;;2.55;;
44822;SDS011;51097;51.984;5.650;2022-10-16T04:02:21;5.47;;;3.17;;
44822;SDS011;51097;51.984;5.650;2022-10-16T04:04:47;4.38;;;2.35;;
44822;SDS011;51097;51.984;5.650;2022-10-16T04:07:12;5.63;;;2.75;;
44822;SDS011;51097;51.984;5.650;2022-10-16T04:09:38;3.22;;;2.30;;
44822;SDS011;51097;51.984;5.650;2022-10-16T04:12:04;3.80;;;2.40;;
44822;SDS011;51097;51.984;5.650;2022-10-16T04:14:29;3.53;;;2.60;;
44822;SDS011;51097;51.984;5.650;2022-10-16T04:16:55;4.80;;;2.15;;
44822;SDS011;51097;51.984;5.650;2022-10-16T04:19:20;6.80;;;2.45;;
44822;SDS011;51097;51.984;5.650;2022-10-16T04:21:46;4.65;;;2.40;;
44822;SDS011;51097;51.984;5.650;2022-10-16T04:24:11;2.88;;;2.05;;
44822;SDS011;51097;51.984;5.650;2022-10-16T04:26:37;5.40;;;2.95;;
44822;SDS011;51097;51.984;5.650;2022-10-16T04:29:02;4.43;;;2.13;;
44822;SDS011;51097;51.984;5.650;2022-10-16T04:31:28;5.03;;;2.58;;
44822;SDS011;51097;51.984;5.650;2022-10-16T04:33:54;5.13;;;2.40;;
44822;SDS011;51097;51.984;5.650;2022-10-16T04:36:19;5.60;;;2.50;;
44822;SDS011;51097;51.984;5.650;2022-10-16T04:38:45;3.85;;;2.40;;
44822;SDS011;51097;51.984;5.650;2022-10-16T04:41:10;4.68;;;2.25;;
44822;SDS011;51097;51.984;5.650;2022-10-16T04:43:36;7.25;;;2.15;;
44822;SDS011;51097;51.984;5.650;2022-10-16T04:46:01;3.38;;;2.42;;
44822;SDS011;51097;51.984;5.650;2022-10-16T04:48:29;4.18;;;2.72;;
44822;SDS011;51097;51.984;5.650;2022-10-16T04:50:55;2.92;;;1.92;;
44822;SDS011;51097;51.984;5.650;2022-10-16T04:53:21;3.42;;;2.45;;
44822;SDS011;51097;51.984;5.650;2022-10-16T04:55:46;6.70;;;2.78;;
44822;SDS011;51097;51.984;5.650;2022-10-16T04:58:12;3.50;;;2.47;;
44822;SDS011;51097;51.984;5.650;2022-10-16T05:00:37;5.03;;;2.45;;
44822;SDS011;51097;51.984;5.650;2022-10-16T05:03:03;4.45;;;2.30;;
44822;SDS011;51097;51.984;5.650;2022-10-16T05:05:32;2.58;;;2.20;;
44822;SDS011;51097;51.984;5.650;2022-10-16T05:07:58;4.80;;;3.00;;
44822;SDS011;51097;51.984;5.650;2022-10-16T05:10:23;3.50;;;2.67;;
44822;SDS011;51097;51.984;5.650;2022-10-16T05:12:49;4.55;;;3.00;;
44822;SDS011;51097;51.984;5.650;2022-10-16T05:15:16;4.93;;;2.55;;
44822;SDS011;51097;51.984;5.650;2022-10-16T05:17:42;5.03;;;2.67;;
44822;SDS011;51097;51.984;5.650;2022-10-16T05:20:07;4.75;;;3.53;;
44822;SDS011;51097;51.984;5.650;2022-10-16T05:22:33;6.75;;;2.88;;
44822;SDS011;51097;51.984;5.650;2022-10-16T05:24:58;7.20;;;3.28;;
44822;SDS011;51097;51.984;5.650;2022-10-16T05:27:24;5.35;;;2.70;;
44822;SDS011;51097;51.984;5.650;2022-10-16T05:29:50;5.65;;;3.15;;
44822;SDS011;51097;51.984;5.650;2022-10-16T05:32:16;2.97;;;2.70;;
44822;SDS011;51097;51.984;5.650;2022-10-16T05:34:43;6.57;;;3.28;;
44822;SDS011;51097;51.984;5.650;2022-10-16T05:37:09;3.95;;;3.05;;
44822;SDS011;51097;51.984;5.650;2022-10-16T05:39:36;6.32;;;3.28;;
44822;SDS011;51097;51.984;5.650;2022-10-16T05:42:02;7.05;;;3.42;;
44822;SDS011;51097;51.984;5.650;2022-10-16T05:44:28;6.30;;;3.10;;
44822;SDS011;51097;51.984;5.650;2022-10-16T05:46:53;7.20;;;3.10;;
44822;SDS011;51097;51.984;5.650;2022-10-16T05:49:19;5.88;;;3.05;;
44822;SDS011;51097;51.984;5.650;2022-10-16T05:51:45;6.50;;;3.55;;
44822;SDS011;51097;51.984;5.650;2022-10-16T05:54:10;4.10;;;3.25;;
44822;SDS011;51097;51.984;5.650;2022-10-16T05:56:36;4.10;;;3.40;;
44822;SDS011;51097;51.984;5.650;2022-10-16T05:59:03;3.67;;;2.83;;
44822;SDS011;51097;51.984;5.650;2022-10-16T06:01:29;7.60;;;3.15;;
44822;SDS011;51097;51.984;5.650;2022-10-16T06:03:56;5.35;;;3.30;;
44822;SDS011;51097;51.984;5.650;2022-10-16T06:06:22;7.68;;;3.13;;
44822;SDS011;51097;51.984;5.650;2022-10-16T06:08:50;5.80;;;3.00;;
44822;SDS011;51097;51.984;5.650;2022-10-16T06:11:17;8.55;;;3.35;;
44822;SDS011;51097;51.984;5.650;2022-10-16T06:13:48;7.25;;;3.17;;
44822;SDS011;51097;51.984;5.650;2022-10-16T06:16:15;4.22;;;3.25;;
44822;SDS011;51097;51.984;5.650;2022-10-16T06:18:40;3.13;;;2.83;;
44822;SDS011;51097;51.984;5.650;2022-10-16T06:21:10;3.25;;;2.63;;
44822;SDS011;51097;51.984;5.650;2022-10-16T06:23:38;3.28;;;2.92;;
44822;SDS011;51097;51.984;5.650;2022-10-16T06:26:05;7.55;;;3.55;;
44822;SDS011;51097;51.984;5.650;2022-10-16T06:28:35;7.45;;;4.22;;
44822;SDS011;51097;51.984;5.650;2022-10-16T06:31:01;4.55;;;3.25;;
44822;SDS011;51097;51.984;5.650;2022-10-16T06:33:27;6.47;;;3.00;;
44822;SDS011;51097;51.984;5.650;2022-10-16T06:35:53;4.53;;;3.15;;
44822;SDS011;51097;51.984;5.650;2022-10-16T06:38:19;5.40;;;2.67;;
44822;SDS011;51097;51.984;5.650;2022-10-16T06:40:44;6.10;;;3.50;;
44822;SDS011;51097;51.984;5.650;2022-10-16T06:43:10;6.30;;;2.55;;
44822;SDS011;51097;51.984;5.650;2022-10-16T06:45:35;4.18;;;2.83;;
44822;SDS011;51097;51.984;5.650;2022-10-16T06:48:01;6.55;;;3.50;;
44822;SDS011;51097;51.984;5.650;2022-10-16T06:50:26;4.38;;;3.10;;
44822;SDS011;51097;51.984;5.650;2022-10-16T06:52:52;3.78;;;2.65;;
44822;SDS011;51097;51.984;5.650;2022-10-16T06:55:17;6.43;;;2.90;;
44822;SDS011;51097;51.984;5.650;2022-10-16T06:57:43;4.03;;;2.85;;
44822;SDS011;51097;51.984;5.650;2022-10-16T07:00:11;6.97;;;2.40;;
44822;SDS011;51097;51.984;5.650;2022-10-16T07:02:37;4.13;;;3.42;;
44822;SDS011;51097;51.984;5.650;2022-10-16T07:05:03;4.15;;;2.72;;
44822;SDS011;51097;51.984;5.650;2022-10-16T07:07:29;6.60;;;2.63;;
44822;SDS011;51097;51.984;5.650;2022-10-16T07:09:54;3.88;;;2.70;;
44822;SDS011;51097;51.984;5.650;2022-10-16T07:12:20;8.27;;;3.00;;
44822;SDS011;51097;51.984;5.650;2022-10-16T07:14:45;8.20;;;3.08;;
44822;SDS011;51097;51.984;5.650;2022-10-16T07:17:11;4.38;;;2.90;;
44822;SDS011;51097;51.984;5.650;2022-10-16T07:19:36;5.68;;;2.47;;
44822;SDS011;51097;51.984;5.650;2022-10-16T07:22:02;4.55;;;3.50;;
44822;SDS011;51097;51.984;5.650;2022-10-16T07:24:28;3.35;;;2.53;;
44822;SDS011;51097;51.984;5.650;2022-10-16T07:26:53;4.65;;;2.80;;
44822;SDS011;51097;51.984;5.650;2022-10-16T07:29:19;6.57;;;3.10;;
44822;SDS011;51097;51.984;5.650;2022-10-16T07:31:47;6.05;;;2.97;;
44822;SDS011;51097;51.984;5.650;2022-10-16T07:34:14;5.85;;;3.55;;
44822;SDS011;51097;51.984;5.650;2022-10-16T07:36:41;6.93;;;3.28;;
44822;SDS011;51097;51.984;5.650;2022-10-16T07:39:07;7.22;;;3.67;;
44822;SDS011;51097;51.984;5.650;2022-10-16T07:41:33;4.05;;;3.35;;
44822;SDS011;51097;51.984;5.650;2022-10-16T07:44:01;4.40;;;2.83;;
44822;SDS011;51097;51.984;5.650;2022-10-16T07:46:27;5.05;;;3.08;;
44822;SDS011;51097;51.984;5.650;2022-10-16T07:48:53;6.35;;;2.95;;
44822;SDS011;51097;51.984;5.650;2022-10-16T07:51:20;4.25;;;3.05;;
44822;SDS011;51097;51.984;5.650;2022-10-16T07:53:47;6.78;;;3.17;;
44822;SDS011;51097;51.984;5.650;2022-10-16T07:56:14;6.78;;;3.35;;
44822;SDS011;51097;51.984;5.650;2022-10-16T07:58:40;4.93;;;3.63;;
44822;SDS011;51097;51.984;5.650;2022-10-16T08:01:07;6.72;;;3.22;;
44822;SDS011;51097;51.984;5.650;2022-10-16T08:03:34;6.80;;;2.97;;
44822;SDS011;51097;51.984;5.650;2022-10-16T08:06:01;5.82;;;3.05;;
44822;SDS011;51097;51.984;5.650;2022-10-16T08:08:27;5.20;;;2.92;;
44822;SDS011;51097;51.984;5.650;2022-10-16T08:10:53;5.43;;;3.05;;
44822;SDS011;51097;51.984;5.650;2022-10-16T08:13:19;5.60;;;3.13;;
44822;SDS011;51097;51.984;5.650;2022-10-16T08:15:44;7.57;;;3.85;;
44822;SDS011;51097;51.984;5.650;2022-10-16T08:18:11;5.45;;;3.05;;
44822;SDS011;51097;51.984;5.650;2022-10-16T08:20:38;4.45;;;3.33;;
44822;SDS011;51097;51.984;5.650;2022-10-16T08:23:05;7.55;;;3.00;;
44822;SDS011;51097;51.984;5.650;2022-10-16T08:25:33;5.78;;;3.90;;
44822;SDS011;51097;51.984;5.650;2022-10-16T08:28:00;6.32;;;3.50;;
44822;SDS011;51097;51.984;5.650;2022-10-16T08:30:27;3.95;;;3.25;;
44822;SDS011;51097;51.984;5.650;2022-10-16T08:32:53;6.80;;;3.10;;
44822;SDS011;51097;51.984;5.650;2022-10-16T08:35:19;6.00;;;3.17;;
44822;SDS011;51097;51.984;5.650;2022-10-16T08:37:44;4.78;;;2.88;;
44822;SDS011;51097;51.984;5.650;2022-10-16T08:40:18;5.13;;;3.47;;
44822;SDS011;51097;51.984;5.650;2022-10-16T08:50:48;8.85;;;2.95;;
44822;SDS011;51097;51.984;5.650;2022-10-16T08:53:23;6.18;;;2.90;;
44822;SDS011;51097;51.984;5.650;2022-10-16T08:55:56;5.28;;;2.63;;
44822;SDS011;51097;51.984;5.650;2022-10-16T08:58:26;5.10;;;2.50;;
44822;SDS011;51097;51.984;5.650;2022-10-16T09:00:54;8.30;;;2.72;;
44822;SDS011;51097;51.984;5.650;2022-10-16T09:11:50;6.63;;;2.65;;
44822;SDS011;51097;51.984;5.650;2022-10-16T09:17:36;11.95;;;2.53;;
44822;SDS011;51097;51.984;5.650;2022-10-16T09:20:10;6.93;;;3.28;;
44822;SDS011;51097;51.984;5.650;2022-10-16T09:23:08;11.63;;;3.08;;
44822;SDS011;51097;51.984;5.650;2022-10-16T09:25:39;10.23;;;3.15;;
44822;SDS011;51097;51.984;5.650;2022-10-16T09:28:08;10.95;;;3.45;;
44822;SDS011;51097;51.984;5.650;2022-10-16T09:30:35;9.90;;;3.38;;
44822;SDS011;51097;51.984;5.650;2022-10-16T09:33:01;12.68;;;2.72;;
44822;SDS011;51097;51.984;5.650;2022-10-16T09:35:36;6.90;;;2.33;;
44822;SDS011;51097;51.984;5.650;2022-10-16T09:38:06;5.65;;;2.30;;
44822;SDS011;51097;51.984;5.650;2022-10-16T09:40:33;11.15;;;2.63;;
44822;SDS011;51097;51.984;5.650;2022-10-16T09:43:20;6.53;;;2.38;;
44822;SDS011;51097;51.984;5.650;2022-10-16T09:45:54;15.50;;;4.20;;
44822;SDS011;51097;51.984;5.650;2022-10-16T09:48:21;8.88;;;2.95;;
44822;SDS011;51097;51.984;5.650;2022-10-16T09:50:57;7.47;;;2.42;;
44822;SDS011;51097;51.984;5.650;2022-10-16T09:53:25;5.88;;;2.25;;
44822;SDS011;51097;51.984;5.650;2022-10-16T09:56:02;6.35;;;2.47;;
44822;SDS011;51097;51.984;5.650;2022-10-16T09:58:30;9.95;;;3.20;;
44822;SDS011;51097;51.984;5.650;2022-10-16T10:00:58;8.48;;;2.30;;
44822;SDS011;51097;51.984;5.650;2022-10-16T10:03:45;8.05;;;2.17;;
44822;SDS011;51097;51.984;5.650;2022-10-16T10:08:59;15.52;;;3.85;;
44822;SDS011;51097;51.984;5.650;2022-10-16T10:11:48;7.78;;;2.55;;
44822;SDS011;51097;51.984;5.650;2022-10-16T10:17:19;10.25;;;2.35;;
44822;SDS011;51097;51.984;5.650;2022-10-16T10:19:52;11.38;;;3.28;;
44822;SDS011;51097;51.984;5.650;2022-10-16T10:30:50;5.88;;;2.05;;
44822;SDS011;51097;51.984;5.650;2022-10-16T10:33:34;10.23;;;2.67;;
44822;SDS011;51097;51.984;5.650;2022-10-16T10:47:26;6.45;;;2.28;;
44822;SDS011;51097;51.984;5.650;2022-10-16T10:50:05;11.73;;;3.75;;
44822;SDS011;51097;51.984;5.650;2022-10-16T10:52:51;10.82;;;2.25;;
44822;SDS011;51097;51.984;5.650;2022-10-16T10:55:37;12.18;;;3.05;;
44822;SDS011;51097;51.984;5.650;2022-10-16T10:58:21;11.65;;;2.38;;
44822;SDS011;51097;51.984;5.650;2022-10-16T11:00:56;10.18;;;2.35;;
44822;SDS011;51097;51.984;5.650;2022-10-16T11:03:41;10.18;;;1.75;;
44822;SDS011;51097;51.984;5.650;2022-10-16T11:08:43;7.05;;;2.03;;
44822;SDS011;51097;51.984;5.650;2022-10-16T11:11:15;7.47;;;1.95;;
44822;SDS011;51097;51.984;5.650;2022-10-16T11:16:53;9.55;;;1.60;;
44822;SDS011;51097;51.984;5.650;2022-10-16T11:19:35;10.02;;;3.05;;
44822;SDS011;51097;51.984;5.650;2022-10-16T11:24:59;12.98;;;2.10;;
44822;SDS011;51097;51.984;5.650;2022-10-16T11:27:50;8.82;;;2.08;;
44822;SDS011;51097;51.984;5.650;2022-10-16T11:30:29;10.13;;;1.90;;
44822;SDS011;51097;51.984;5.650;2022-10-16T11:35:38;5.88;;;1.92;;
44822;SDS011;51097;51.984;5.650;2022-10-16T11:38:14;7.65;;;2.05;;
44822;SDS011;51097;51.984;5.650;2022-10-16T11:40:48;14.18;;;4.05;;
44822;SDS011;51097;51.984;5.650;2022-10-16T11:43:25;10.27;;;1.92;;
44822;SDS011;51097;51.984;5.650;2022-10-16T11:46:04;6.97;;;1.98;;
44822;SDS011;51097;51.984;5.650;2022-10-16T11:48:39;10.15;;;2.55;;
44822;SDS011;51097;51.984;5.650;2022-10-16T11:51:25;10.00;;;2.30;;
44822;SDS011;51097;51.984;5.650;2022-10-16T11:56:58;9.27;;;2.10;;
44822;SDS011;51097;51.984;5.650;2022-10-16T11:59:28;8.53;;;2.27;;
44822;SDS011;51097;51.984;5.650;2022-10-16T12:04:45;12.07;;;2.47;;
44822;SDS011;51097;51.984;5.650;2022-10-16T12:07:15;8.82;;;2.35;;
44822;SDS011;51097;51.984;5.650;2022-10-16T12:09:47;7.10;;;1.42;;
44822;SDS011;51097;51.984;5.650;2022-10-16T12:12:25;11.93;;;2.20;;
44822;SDS011;51097;51.984;5.650;2022-10-16T12:17:45;7.28;;;2.17;;
44822;SDS011;51097;51.984;5.650;2022-10-16T12:22:36;16.48;;;2.95;;
44822;SDS011;51097;51.984;5.650;2022-10-16T12:28:00;9.82;;;1.65;;
44822;SDS011;51097;51.984;5.650;2022-10-16T12:30:31;6.38;;;2.05;;
44822;SDS011;51097;51.984;5.650;2022-10-16T12:33:04;8.15;;;2.95;;
44822;SDS011;51097;51.984;5.650;2022-10-16T12:35:35;12.23;;;2.65;;
44822;SDS011;51097;51.984;5.650;2022-10-16T12:38:16;12.48;;;2.72;;
44822;SDS011;51097;51.984;5.650;2022-10-16T12:40:44;8.93;;;1.90;;
44822;SDS011;51097;51.984;5.650;2022-10-16T12:43:36;8.55;;;2.55;;
44822;SDS011;51097;51.984;5.650;2022-10-16T12:46:04;13.68;;;2.50;;
44822;SDS011;51097;51.984;5.650;2022-10-16T12:48:33;12.65;;;2.28;;
44822;SDS011;51097;51.984;5.650;2022-10-16T12:51:12;7.13;;;2.25;;
44822;SDS011;51097;51.984;5.650;2022-10-16T12:54:01;8.23;;;1.70;;
44822;SDS011;51097;51.984;5.650;2022-10-16T12:56:36;16.95;;;4.25;;
44822;SDS011;51097;51.984;5.650;2022-10-16T12:59:08;8.18;;;1.63;;
44822;SDS011;51097;51.984;5.650;2022-10-16T13:04:40;8.63;;;1.50;;
44822;SDS011;51097;51.984;5.650;2022-10-16T13:10:04;10.98;;;2.08;;
44822;SDS011;51097;51.984;5.650;2022-10-16T13:20:56;12.18;;;2.35;;
44822;SDS011;51097;51.984;5.650;2022-10-16T13:23:58;11.02;;;2.30;;
44822;SDS011;51097;51.984;5.650;2022-10-16T13:27:01;11.27;;;2.80;;
44822;SDS011;51097;51.984;5.650;2022-10-16T13:33:17;9.55;;;1.95;;
44822;SDS011;51097;51.984;5.650;2022-10-16T13:35:51;10.30;;;2.25;;
44822;SDS011;51097;51.984;5.650;2022-10-16T13:38:20;11.07;;;4.00;;
44822;SDS011;51097;51.984;5.650;2022-10-16T13:43:20;9.90;;;2.97;;
44822;SDS011;51097;51.984;5.650;2022-10-16T13:45:53;8.38;;;1.70;;
44822;SDS011;51097;51.984;5.650;2022-10-16T13:48:20;8.98;;;1.88;;
44822;SDS011;51097;51.984;5.650;2022-10-16T13:50:45;8.75;;;2.35;;
44822;SDS011;51097;51.984;5.650;2022-10-16T13:53:14;6.25;;;1.67;;
44822;SDS011;51097;51.984;5.650;2022-10-16T13:55:40;15.57;;;2.38;;
44822;SDS011;51097;51.984;5.650;2022-10-16T13:58:11;7.22;;;2.28;;
44822;SDS011;51097;51.984;5.650;2022-10-16T14:00:38;9.57;;;1.73;;
44822;SDS011;51097;51.984;5.650;2022-10-16T14:03:07;9.20;;;2.05;;
44822;SDS011;51097;51.984;5.650;2022-10-16T14:05:44;12.45;;;2.30;;
44822;SDS011;51097;51.984;5.650;2022-10-16T14:08:14;8.93;;;1.90;;
44822;SDS011;51097;51.984;5.650;2022-10-16T14:10:40;13.85;;;2.95;;
44822;SDS011;51097;51.984;5.650;2022-10-16T14:13:06;12.82;;;2.10;;
44822;SDS011;51097;51.984;5.650;2022-10-16T14:15:34;6.55;;;1.83;;
44822;SDS011;51097;51.984;5.650;2022-10-16T14:18:01;11.25;;;2.25;;
44822;SDS011;51097;51.984;5.650;2022-10-16T14:20:29;14.32;;;3.35;;
44822;SDS011;51097;51.984;5.650;2022-10-16T14:22:58;11.15;;;2.53;;
44822;SDS011;51097;51.984;5.650;2022-10-16T14:25:30;9.60;;;3.15;;
44822;SDS011;51097;51.984;5.650;2022-10-16T14:28:00;10.73;;;2.83;;
44822;SDS011;51097;51.984;5.650;2022-10-16T14:30:28;10.75;;;2.83;;
44822;SDS011;51097;51.984;5.650;2022-10-16T14:32:56;10.98;;;2.40;;
44822;SDS011;51097;51.984;5.650;2022-10-16T14:35:25;12.05;;;1.92;;
44822;SDS011;51097;51.984;5.650;2022-10-16T14:38:02;10.95;;;2.42;;
44822;SDS011;51097;51.984;5.650;2022-10-16T14:40:33;8.43;;;2.90;;
44822;SDS011;51097;51.984;5.650;2022-10-16T14:43:02;10.48;;;2.08;;
44822;SDS011;51097;51.984;5.650;2022-10-16T14:45:30;7.35;;;2.35;;
44822;SDS011;51097;51.984;5.650;2022-10-16T14:47:58;8.38;;;2.08;;
44822;SDS011;51097;51.984;5.650;2022-10-16T14:50:30;7.47;;;2.40;;
44822;SDS011;51097;51.984;5.650;2022-10-16T14:52:56;7.95;;;1.90;;
44822;SDS011;51097;51.984;5.650;2022-10-16T14:55:22;7.45;;;2.05;;
44822;SDS011;51097;51.984;5.650;2022-10-16T14:57:49;10.40;;;2.42;;
44822;SDS011;51097;51.984;5.650;2022-10-16T15:00:16;9.45;;;2.13;;
44822;SDS011;51097;51.984;5.650;2022-10-16T15:02:45;10.52;;;2.20;;
44822;SDS011;51097;51.984;5.650;2022-10-16T15:07:45;9.98;;;2.30;;
44822;SDS011;51097;51.984;5.650;2022-10-16T15:10:15;9.38;;;2.35;;
44822;SDS011;51097;51.984;5.650;2022-10-16T15:12:42;9.35;;;2.38;;
44822;SDS011;51097;51.984;5.650;2022-10-16T15:15:53;9.50;;;2.10;;
44822;SDS011;51097;51.984;5.650;2022-10-16T15:18:01;10.77;;;1.83;;
44822;SDS011;51097;51.984;5.650;2022-10-16T15:20:28;14.00;;;2.33;;
44822;SDS011;51097;51.984;5.650;2022-10-16T15:22:58;12.63;;;3.15;;
44822;SDS011;51097;51.984;5.650;2022-10-16T15:25:45;8.50;;;2.05;;
44822;SDS011;51097;51.984;5.650;2022-10-16T15:28:19;5.65;;;2.63;;
44822;SDS011;51097;51.984;5.650;2022-10-16T15:30:45;12.27;;;2.15;;
44822;SDS011;51097;51.984;5.650;2022-10-16T15:33:18;7.18;;;2.75;;
44822;SDS011;51097;51.984;5.650;2022-10-16T15:35:47;10.13;;;1.95;;
44822;SDS011;51097;51.984;5.650;2022-10-16T15:38:14;8.75;;;2.08;;
44822;SDS011;51097;51.984;5.650;2022-10-16T15:40:40;6.93;;;1.67;;
44822;SDS011;51097;51.984;5.650;2022-10-16T15:43:06;7.95;;;2.40;;
44822;SDS011;51097;51.984;5.650;2022-10-16T15:45:32;6.65;;;1.50;;
44822;SDS011;51097;51.984;5.650;2022-10-16T15:47:57;13.57;;;3.35;;
44822;SDS011;51097;51.984;5.650;2022-10-16T15:50:23;12.60;;;3.20;;
44822;SDS011;51097;51.984;5.650;2022-10-16T15:52:49;7.80;;;2.60;;
44822;SDS011;51097;51.984;5.650;2022-10-16T15:55:15;10.18;;;3.88;;
44822;SDS011;51097;51.984;5.650;2022-10-16T15:57:42;15.13;;;4.10;;
44822;SDS011;51097;51.984;5.650;2022-10-16T16:00:11;10.80;;;3.45;;
44822;SDS011;51097;51.984;5.650;2022-10-16T16:02:39;9.15;;;3.40;;
44822;SDS011;51097;51.984;5.650;2022-10-16T16:05:06;11.70;;;3.75;;
44822;SDS011;51097;51.984;5.650;2022-10-16T16:07:36;7.80;;;3.47;;
44822;SDS011;51097;51.984;5.650;2022-10-16T16:10:03;10.75;;;3.10;;
44822;SDS011;51097;51.984;5.650;2022-10-16T16:12:31;13.35;;;3.83;;
44822;SDS011;51097;51.984;5.650;2022-10-16T16:14:57;10.05;;;3.47;;
44822;SDS011;51097;51.984;5.650;2022-10-16T16:17:22;12.40;;;5.07;;
44822;SDS011;51097;51.984;5.650;2022-10-16T16:19:49;10.68;;;3.75;;
44822;SDS011;51097;51.984;5.650;2022-10-16T16:22:15;12.00;;;3.42;;
44822;SDS011;51097;51.984;5.650;2022-10-16T16:24:40;10.52;;;3.38;;
44822;SDS011;51097;51.984;5.650;2022-10-16T16:27:06;11.65;;;3.80;;
44822;SDS011;51097;51.984;5.650;2022-10-16T16:29:31;9.90;;;3.08;;
44822;SDS011;51097;51.984;5.650;2022-10-16T16:31:58;7.60;;;3.42;;
44822;SDS011;51097;51.984;5.650;2022-10-16T16:34:25;13.70;;;3.53;;
44822;SDS011;51097;51.984;5.650;2022-10-16T16:36:51;9.80;;;3.50;;
44822;SDS011;51097;51.984;5.650;2022-10-16T16:39:17;10.52;;;2.95;;
44822;SDS011;51097;51.984;5.650;2022-10-16T16:41:43;11.98;;;3.10;;
44822;SDS011;51097;51.984;5.650;2022-10-16T16:44:10;9.20;;;3.35;;
44822;SDS011;51097;51.984;5.650;2022-10-16T16:46:37;10.73;;;4.32;;
44822;SDS011;51097;51.984;5.650;2022-10-16T16:49:04;11.85;;;3.35;;
44822;SDS011;51097;51.984;5.650;2022-10-16T16:51:31;9.00;;;3.50;;
44822;SDS011;51097;51.984;5.650;2022-10-16T16:53:57;14.40;;;4.63;;